createdAt,value
2017-10-21T00:01:24.963Z,18.73
2017-10-21T00:03:52.460Z,33.43
2017-10-21T00:06:19.957Z,37.80
2017-10-21T00:08:47.486Z,22.43
2017-10-21T00:11:14.975Z,30.50
2017-10-21T00:13:42.472Z,22.60
2017-10-21T00:16:10.130Z,15.63
2017-10-21T00:18:37.638Z,17.20
2017-10-21T00:21:05.133Z,14.63
2017-10-21T00:23:32.668Z,26.93
2017-10-21T00:26:00.159Z,38.50
2017-10-21T00:28:27.653Z,18.20
2017-10-21T00:30:55.222Z,28.00
2017-10-21T00:33:22.737Z,23.23
2017-10-21T00:35:50.289Z,24.40
2017-10-21T00:38:17.813Z,27.17
2017-10-21T00:40:45.312Z,18.03
2017-10-21T00:43:12.810Z,16.03
2017-10-21T00:45:40.355Z,20.93
2017-10-21T00:48:07.848Z,21.00
2017-10-21T00:50:35.360Z,21.93
2017-10-21T00:53:02.895Z,17.03
2017-10-21T00:55:30.456Z,12.50
2017-10-21T00:57:57.952Z,22.93
2017-10-21T01:00:25.689Z,20.13
2017-10-21T01:02:53.180Z,12.30
2017-10-21T01:05:20.683Z,11.73
2017-10-21T01:07:48.222Z,12.80
2017-10-21T01:10:15.825Z,11.93
2017-10-21T01:12:43.316Z,12.60
2017-10-21T01:15:10.936Z,11.87
2017-10-21T01:17:38.516Z,17.27
2017-10-21T01:20:06.007Z,13.97
2017-10-21T01:22:33.719Z,29.73
2017-10-21T01:25:01.225Z,13.40
2017-10-21T01:27:28.726Z,12.23
2017-10-21T01:29:56.267Z,11.27
2017-10-21T01:32:23.850Z,10.13
2017-10-21T01:34:51.343Z,13.37
2017-10-21T01:37:18.868Z,12.37
2017-10-21T01:39:46.359Z,12.23
2017-10-21T01:42:13.857Z,10.57
2017-10-21T01:44:41.379Z,11.00
2017-10-21T01:47:08.876Z,10.10
2017-10-21T01:49:36.369Z,12.80
2017-10-21T01:52:04.020Z,10.53
2017-10-21T01:54:31.511Z,11.20
2017-10-21T01:56:59.003Z,12.90
2017-10-21T01:59:26.600Z,8.57
2017-10-21T02:01:54.088Z,8.40
2017-10-21T02:04:21.575Z,9.27
2017-10-21T02:06:49.098Z,11.77
2017-10-21T02:09:16.584Z,11.50
2017-10-21T02:11:44.079Z,12.60
2017-10-21T02:14:11.612Z,14.20
2017-10-21T02:16:39.199Z,10.70
2017-10-21T02:19:06.691Z,10.70
2017-10-21T02:21:34.520Z,8.00
2017-10-21T02:24:02.009Z,9.90
2017-10-21T02:26:29.544Z,8.50
2017-10-21T02:28:57.069Z,7.33
2017-10-21T02:31:24.554Z,8.60
2017-10-21T02:33:52.040Z,8.90
2017-10-21T02:36:19.581Z,9.77
2017-10-21T02:38:47.076Z,7.37
2017-10-21T02:41:14.795Z,8.07
2017-10-21T02:43:42.280Z,8.07
2017-10-21T02:46:09.782Z,10.00
2017-10-21T02:48:37.319Z,7.97
2017-10-21T02:51:04.817Z,7.90
2017-10-21T02:53:32.317Z,8.13
2017-10-21T02:55:59.855Z,7.50
2017-10-21T02:58:27.351Z,9.30
2017-10-21T03:00:54.842Z,7.90
2017-10-21T03:03:22.414Z,8.80
2017-10-21T03:05:49.898Z,8.70
2017-10-21T03:08:17.401Z,9.27
2017-10-21T03:10:44.940Z,7.43
2017-10-21T03:13:12.426Z,8.13
2017-10-21T03:15:39.913Z,6.80
2017-10-21T03:18:07.438Z,7.50
2017-10-21T03:20:35.034Z,6.70
2017-10-21T03:23:02.592Z,6.77
2017-10-21T03:25:30.120Z,7.40
2017-10-21T03:27:57.618Z,6.43
2017-10-21T03:30:25.113Z,7.30
2017-10-21T03:32:52.652Z,6.37
2017-10-21T03:35:20.136Z,6.87
2017-10-21T03:37:47.616Z,6.10
2017-10-21T03:40:15.166Z,6.20
2017-10-21T03:42:44.467Z,7.17
2017-10-21T03:45:12.047Z,5.10
2017-10-21T03:47:39.581Z,7.17
2017-10-21T03:50:07.090Z,6.23
2017-10-21T03:52:34.571Z,6.27
2017-10-21T03:55:02.192Z,6.03
2017-10-21T03:57:29.699Z,6.80
2017-10-21T03:59:57.190Z,5.87
2017-10-21T04:02:24.727Z,4.83
2017-10-21T04:04:52.322Z,5.20
2017-10-21T04:07:19.807Z,4.97
2017-10-21T04:09:47.353Z,4.53
2017-10-21T04:12:14.837Z,4.40
2017-10-21T04:14:42.326Z,5.20
2017-10-21T04:17:09.854Z,4.50
2017-10-21T04:19:37.345Z,6.40
2017-10-21T04:22:04.834Z,4.57
2017-10-21T04:24:32.395Z,4.10
2017-10-21T04:26:59.886Z,3.97
2017-10-21T04:29:27.372Z,4.40
2017-10-21T04:31:54.891Z,3.50
2017-10-21T04:34:22.433Z,4.13
2017-10-21T04:36:49.947Z,4.40
2017-10-21T04:39:17.433Z,5.37
2017-10-21T04:41:45.105Z,5.23
2017-10-21T04:44:12.588Z,4.37
2017-10-21T04:46:40.116Z,4.43
2017-10-21T04:49:07.652Z,4.53
2017-10-21T04:51:35.141Z,4.50
2017-10-21T04:54:02.631Z,4.37
2017-10-21T04:56:30.172Z,4.13
2017-10-21T04:58:57.654Z,4.50
2017-10-21T05:01:25.163Z,3.73
2017-10-21T05:03:52.824Z,4.10
2017-10-21T05:06:20.324Z,4.40
2017-10-21T05:08:47.817Z,5.70
2017-10-21T05:11:15.340Z,5.70
2017-10-21T05:13:42.863Z,5.27
2017-10-21T05:16:10.427Z,5.70
2017-10-21T05:18:37.936Z,4.67
2017-10-21T05:21:05.424Z,4.80
2017-10-21T05:23:32.973Z,4.20
2017-10-21T05:26:00.492Z,4.40
2017-10-21T05:28:27.994Z,5.30
2017-10-21T05:30:55.659Z,4.97
2017-10-21T05:33:23.155Z,4.80
2017-10-21T05:35:50.651Z,5.00
2017-10-21T05:38:18.245Z,4.70
2017-10-21T05:40:45.828Z,4.80
2017-10-21T05:43:13.325Z,5.80
2017-10-21T05:45:40.843Z,4.63
2017-10-21T05:48:08.341Z,4.73
2017-10-21T05:50:35.835Z,5.17
2017-10-21T05:53:03.363Z,5.27
2017-10-21T05:55:30.854Z,6.90
2017-10-21T05:57:58.353Z,4.90
2017-10-21T06:00:25.892Z,4.67
2017-10-21T06:02:53.380Z,4.93
2017-10-21T06:05:20.870Z,5.37
2017-10-21T06:07:48.415Z,5.87
2017-10-21T06:10:15.897Z,5.60
2017-10-21T06:12:43.382Z,5.30
2017-10-21T06:15:10.903Z,5.70
2017-10-21T06:17:39.732Z,6.83
2017-10-21T06:20:07.253Z,5.30
2017-10-21T06:22:34.786Z,5.30
2017-10-21T06:25:02.287Z,5.40
2017-10-21T06:27:29.783Z,6.10
2017-10-21T06:29:57.307Z,5.70
2017-10-21T06:32:24.798Z,5.60
2017-10-21T06:34:52.283Z,4.90
2017-10-21T06:37:19.823Z,6.30
2017-10-21T06:39:47.340Z,5.43
2017-10-21T06:42:14.833Z,4.70
2017-10-21T06:44:42.450Z,5.30
2017-10-21T06:47:09.946Z,5.00
2017-10-21T06:49:37.435Z,4.83
2017-10-21T06:52:04.988Z,6.20
2017-10-21T06:54:32.481Z,5.80
2017-10-21T06:57:00.049Z,5.87
2017-10-21T06:59:27.560Z,5.87
2017-10-21T07:01:55.050Z,5.53
2017-10-21T07:04:22.608Z,6.20
2017-10-21T07:06:50.238Z,5.57
2017-10-21T07:09:17.728Z,5.23
2017-10-21T07:11:45.215Z,5.40
2017-10-21T07:14:12.753Z,5.70
2017-10-21T07:16:40.292Z,6.73
2017-10-21T07:19:07.863Z,5.70
2017-10-21T07:21:35.436Z,5.17
2017-10-21T07:24:03.075Z,6.23
2017-10-21T07:26:30.563Z,6.33
2017-10-21T07:28:58.046Z,5.63
2017-10-21T07:31:25.647Z,6.97
2017-10-21T07:33:53.142Z,5.10
2017-10-21T07:36:20.637Z,6.10
2017-10-21T07:38:48.153Z,5.57
2017-10-21T07:41:15.649Z,6.40
2017-10-21T07:43:43.137Z,6.93
2017-10-21T07:46:10.651Z,6.00
2017-10-21T07:48:38.144Z,5.13
2017-10-21T07:51:05.634Z,8.40
2017-10-21T07:53:33.196Z,5.13
2017-10-21T07:56:00.682Z,5.17
2017-10-21T07:58:28.167Z,6.30
2017-10-21T08:00:55.712Z,4.87
2017-10-21T08:03:23.201Z,5.10
2017-10-21T08:05:50.687Z,5.30
2017-10-21T08:08:18.346Z,5.00
2017-10-21T08:10:45.846Z,5.90
2017-10-21T08:13:13.329Z,4.47
2017-10-21T08:15:40.943Z,4.77
2017-10-21T08:18:08.472Z,4.70
2017-10-21T08:20:35.964Z,4.80
2017-10-21T08:23:03.496Z,3.90
2017-10-21T08:25:31.077Z,4.80
2017-10-21T08:27:58.574Z,4.80
2017-10-21T08:30:26.124Z,5.30
2017-10-21T08:32:53.619Z,4.90
2017-10-21T08:35:21.109Z,7.10
2017-10-21T08:37:48.650Z,5.33
2017-10-21T08:40:16.149Z,4.30
2017-10-21T08:42:43.667Z,5.07
2017-10-21T08:45:11.204Z,5.17
2017-10-21T08:47:38.703Z,5.03
2017-10-21T08:50:06.190Z,5.77
2017-10-21T08:52:33.725Z,4.70
2017-10-21T08:55:01.208Z,6.53
2017-10-21T08:57:28.695Z,4.77
2017-10-21T08:59:56.213Z,4.23
2017-10-21T09:02:23.696Z,4.10
2017-10-21T09:04:51.235Z,5.90
2017-10-21T09:07:18.728Z,5.53
2017-10-21T09:09:46.215Z,5.20
2017-10-21T09:12:13.748Z,5.33
2017-10-21T09:14:41.248Z,4.47
2017-10-21T09:17:08.737Z,3.93
2017-10-21T09:19:36.337Z,4.60
2017-10-21T09:22:03.840Z,4.53
2017-10-21T09:24:31.337Z,6.50
2017-10-21T09:26:58.874Z,5.27
2017-10-21T09:29:26.362Z,4.10
2017-10-21T09:31:53.846Z,5.03
2017-10-21T09:34:21.396Z,5.07
2017-10-21T09:36:48.889Z,6.10
2017-10-21T09:39:16.392Z,8.27
2017-10-21T09:41:43.925Z,4.60
2017-10-21T09:44:11.422Z,6.73
2017-10-21T09:46:38.947Z,9.10
2017-10-21T09:49:06.436Z,4.67
2017-10-21T09:51:33.919Z,3.73
2017-10-21T09:54:01.450Z,4.67
2017-10-21T09:56:28.943Z,5.23
2017-10-21T09:58:56.427Z,6.30
2017-10-21T10:01:24.140Z,5.67
2017-10-21T10:03:51.649Z,6.77
2017-10-21T10:06:19.249Z,5.10
2017-10-21T10:08:46.772Z,4.53
2017-10-21T10:11:14.267Z,4.80
2017-10-21T10:13:41.760Z,5.10
2017-10-21T10:16:09.280Z,6.00
2017-10-21T10:18:36.841Z,5.03
2017-10-21T10:21:04.341Z,6.13
2017-10-21T10:23:31.862Z,5.30
2017-10-21T10:25:59.419Z,5.43
2017-10-21T10:28:26.915Z,6.27
2017-10-21T10:30:54.434Z,5.03
2017-10-21T10:33:21.946Z,5.53
2017-10-21T10:35:49.466Z,5.67
2017-10-21T10:38:16.980Z,6.77
2017-10-21T10:40:44.512Z,6.70
2017-10-21T10:43:12.025Z,5.90
2017-10-21T10:45:39.539Z,5.87
2017-10-21T10:48:07.160Z,5.60
2017-10-21T10:50:34.648Z,6.20
2017-10-21T10:53:02.137Z,6.90
2017-10-21T10:55:29.713Z,6.40
2017-10-21T10:57:57.221Z,8.07
2017-10-21T11:00:24.725Z,6.80
2017-10-21T11:02:52.399Z,15.23
2017-10-21T11:05:19.905Z,20.50
2017-10-21T11:07:47.392Z,6.40
2017-10-21T11:10:14.941Z,40.43
2017-10-21T11:12:43.371Z,6.13
2017-10-21T11:15:10.873Z,12.90
2017-10-21T11:17:38.571Z,6.80
2017-10-21T11:20:06.070Z,6.20
2017-10-21T11:22:33.563Z,5.80
2017-10-21T11:25:01.149Z,5.40
2017-10-21T11:27:28.670Z,5.37
2017-10-21T11:29:56.256Z,4.90
2017-10-21T11:32:23.746Z,5.17
2017-10-21T11:34:51.272Z,4.50
2017-10-21T11:37:18.759Z,8.37
2017-10-21T11:39:46.296Z,7.93
2017-10-21T11:42:13.876Z,8.50
2017-10-21T11:44:41.360Z,5.30
2017-10-21T11:47:08.864Z,5.60
2017-10-21T11:49:36.363Z,5.13
2017-10-21T11:52:03.897Z,7.27
2017-10-21T11:54:31.388Z,10.70
2017-10-21T11:56:58.874Z,5.53
2017-10-21T11:59:26.409Z,6.70
2017-10-21T12:01:53.927Z,6.07
2017-10-21T12:04:21.495Z,5.57
2017-10-21T12:06:49.144Z,6.07
2017-10-21T12:09:16.717Z,5.70
2017-10-21T12:11:44.209Z,6.07
2017-10-21T12:14:11.820Z,15.23
2017-10-21T12:16:39.323Z,25.10
2017-10-21T12:19:06.839Z,6.97
2017-10-21T12:21:34.353Z,8.00
2017-10-21T12:24:01.965Z,6.70
2017-10-21T12:26:29.533Z,7.30
2017-10-21T12:28:57.020Z,5.17
2017-10-21T12:31:24.506Z,6.23
2017-10-21T12:33:52.024Z,7.60
2017-10-21T12:36:19.515Z,5.97
2017-10-21T12:38:47.051Z,6.30
2017-10-21T12:41:14.535Z,4.93
2017-10-21T12:43:42.044Z,7.10
2017-10-21T12:46:09.567Z,7.23
2017-10-21T12:48:37.057Z,5.53
2017-10-21T12:51:04.617Z,7.33
2017-10-21T12:53:32.149Z,7.10
2017-10-21T12:55:59.715Z,5.90
2017-10-21T12:58:27.278Z,8.53
2017-10-21T13:00:54.805Z,8.00
2017-10-21T13:03:22.293Z,7.93
2017-10-21T13:05:49.853Z,9.00
2017-10-21T13:08:17.388Z,6.50
2017-10-21T13:10:44.880Z,6.60
2017-10-21T13:13:12.378Z,6.97
2017-10-21T13:15:39.913Z,6.57
2017-10-21T13:18:07.460Z,6.90
2017-10-21T13:20:34.944Z,5.97
2017-10-21T13:23:02.471Z,6.20
2017-10-21T13:25:29.956Z,6.77
2017-10-21T13:27:57.532Z,7.67
2017-10-21T13:30:25.068Z,10.13
2017-10-21T13:32:52.596Z,7.03
2017-10-21T13:35:20.107Z,9.00
2017-10-21T13:37:47.803Z,6.10
2017-10-21T13:40:15.298Z,6.10
2017-10-21T13:42:42.826Z,5.90
2017-10-21T13:45:10.359Z,5.67
2017-10-21T13:47:37.851Z,5.60
2017-10-21T13:50:05.352Z,5.40
2017-10-21T13:52:32.872Z,5.00
2017-10-21T13:55:00.429Z,6.27
2017-10-21T13:57:27.917Z,5.00
2017-10-21T13:59:55.640Z,14.43
2017-10-21T14:02:23.192Z,5.80
2017-10-21T14:04:50.688Z,6.00
2017-10-21T14:07:18.213Z,6.00
2017-10-21T14:09:45.796Z,6.33
2017-10-21T14:12:13.298Z,6.20
2017-10-21T14:14:40.857Z,5.33
2017-10-21T14:17:08.344Z,6.30
2017-10-21T14:19:35.828Z,5.53
2017-10-21T14:22:03.392Z,6.50
2017-10-21T14:24:30.888Z,7.53
2017-10-21T14:26:58.401Z,6.80
2017-10-21T14:29:25.918Z,6.50
2017-10-21T14:31:53.526Z,8.90
2017-10-21T14:34:21.017Z,5.40
2017-10-21T14:36:48.622Z,5.07
2017-10-21T14:39:16.105Z,5.60
2017-10-21T14:41:43.661Z,5.27
2017-10-21T14:44:11.175Z,4.70
2017-10-21T14:46:38.707Z,4.20
2017-10-21T14:49:06.222Z,5.60
2017-10-21T14:51:33.714Z,7.03
2017-10-21T14:54:01.215Z,6.93
2017-10-21T14:56:28.734Z,5.20
2017-10-21T14:58:56.269Z,7.03
2017-10-21T15:01:25.469Z,6.30
2017-10-21T15:03:52.964Z,7.30
2017-10-21T15:06:20.496Z,7.20
2017-10-21T15:08:47.995Z,7.30
2017-10-21T15:11:15.486Z,5.90
2017-10-21T15:13:43.044Z,4.10
2017-10-21T15:16:10.543Z,5.93
2017-10-21T15:18:38.039Z,5.80
2017-10-21T15:21:05.602Z,6.23
2017-10-21T15:23:33.119Z,9.50
2017-10-21T15:26:00.611Z,8.27
2017-10-21T15:28:28.132Z,6.77
2017-10-21T15:30:55.663Z,7.60
2017-10-21T15:33:23.204Z,7.63
2017-10-21T15:35:50.719Z,7.17
2017-10-21T15:38:18.250Z,7.30
2017-10-21T15:40:45.749Z,7.60
2017-10-21T15:43:13.249Z,8.40
2017-10-21T15:45:40.820Z,7.77
2017-10-21T15:48:08.361Z,8.93
2017-10-21T15:50:35.899Z,9.17
2017-10-21T15:53:03.436Z,8.73
2017-10-21T15:55:30.943Z,8.93
2017-10-21T15:57:58.510Z,9.27
2017-10-21T16:00:26.001Z,9.83
2017-10-21T16:02:53.491Z,8.93
2017-10-21T16:05:21.020Z,13.20
2017-10-21T16:07:48.520Z,10.43
2017-10-21T16:10:16.015Z,10.40
2017-10-21T16:12:43.655Z,12.20
2017-10-21T16:15:11.213Z,11.70
2017-10-21T16:17:38.711Z,11.40
2017-10-21T16:20:06.237Z,9.37
2017-10-21T16:22:33.732Z,10.90
2017-10-21T16:25:01.217Z,9.37
2017-10-21T16:27:28.767Z,11.60
2017-10-21T16:29:56.257Z,11.00
2017-10-21T16:32:23.836Z,9.43
2017-10-21T16:34:51.404Z,9.50
2017-10-21T16:37:18.898Z,10.73
2017-10-21T16:39:46.491Z,13.30
2017-10-21T16:42:14.036Z,11.20
2017-10-21T16:44:41.612Z,11.93
2017-10-21T16:47:09.172Z,11.03
2017-10-21T16:49:36.732Z,13.70
2017-10-21T16:52:04.225Z,14.07
2017-10-21T16:54:31.741Z,11.47
2017-10-21T16:56:59.282Z,11.07
2017-10-21T16:59:26.769Z,11.70
2017-10-21T17:01:54.269Z,13.60
2017-10-21T17:04:21.799Z,12.53
2017-10-21T17:06:49.296Z,13.60
2017-10-21T17:09:16.783Z,13.00
2017-10-21T17:11:44.349Z,14.60
2017-10-21T17:14:12.033Z,14.20
2017-10-21T17:16:39.522Z,13.90
2017-10-21T17:19:07.016Z,11.87
2017-10-21T17:21:34.589Z,13.70
2017-10-21T17:24:02.095Z,12.17
2017-10-21T17:26:29.586Z,11.73
2017-10-21T17:28:57.112Z,13.17
2017-10-21T17:31:24.599Z,16.63
2017-10-21T17:33:52.087Z,14.10
2017-10-21T17:36:19.636Z,12.27
2017-10-21T17:38:47.202Z,10.90
2017-10-21T17:41:14.704Z,11.03
2017-10-21T17:43:42.317Z,11.17
2017-10-21T17:46:09.818Z,11.80
2017-10-21T17:48:37.317Z,12.20
2017-10-21T17:51:04.848Z,10.17
2017-10-21T17:53:32.354Z,10.93
2017-10-21T17:55:59.912Z,10.73
2017-10-21T17:58:27.464Z,12.47
2017-10-21T18:00:55.013Z,10.80
2017-10-21T18:03:22.507Z,10.03
2017-10-21T18:05:50.053Z,11.30
2017-10-21T18:08:17.607Z,10.50
2017-10-21T18:10:45.100Z,10.90
2017-10-21T18:13:12.630Z,13.37
2017-10-21T18:15:40.116Z,12.80
2017-10-21T18:18:07.633Z,12.43
2017-10-21T18:20:35.132Z,12.90
2017-10-21T18:23:02.692Z,12.67
2017-10-21T18:25:30.218Z,13.00
2017-10-21T18:27:57.716Z,14.20
2017-10-21T18:30:25.428Z,11.77
2017-10-21T18:32:52.928Z,11.70
2017-10-21T18:35:20.420Z,11.67
2017-10-21T18:37:48.012Z,14.33
2017-10-21T18:40:15.563Z,14.80
2017-10-21T18:42:43.122Z,14.87
2017-10-21T18:45:10.639Z,14.40
2017-10-21T18:47:38.171Z,15.13
2017-10-21T18:50:05.712Z,14.57
2017-10-21T18:52:33.211Z,16.00
2017-10-21T18:55:00.749Z,14.77
2017-10-21T18:57:28.249Z,18.33
2017-10-21T18:59:55.744Z,13.63
2017-10-21T19:02:23.304Z,14.37
2017-10-21T19:04:50.852Z,13.50
2017-10-21T19:07:18.411Z,17.60
2017-10-21T19:09:45.992Z,11.30
2017-10-21T19:12:13.490Z,13.60
2017-10-21T19:17:14.696Z,16.40
2017-10-21T19:19:42.225Z,15.53
2017-10-21T19:22:09.731Z,14.40
2017-10-21T19:24:37.233Z,12.80
2017-10-21T19:27:04.859Z,12.90
2017-10-21T19:29:32.352Z,13.93
2017-10-21T19:31:59.841Z,10.80
2017-10-21T19:34:27.427Z,19.33
2017-10-21T19:36:54.971Z,14.13
2017-10-21T19:39:22.497Z,15.80
2017-10-21T19:41:50.084Z,19.07
2017-10-21T19:44:17.638Z,30.80
2017-10-21T19:46:45.138Z,14.80
2017-10-21T19:49:12.630Z,24.03
2017-10-21T19:51:40.838Z,14.10
2017-10-21T19:54:08.354Z,15.53
2017-10-21T19:56:35.957Z,14.77
2017-10-21T19:59:03.477Z,18.57
2017-10-21T20:01:30.967Z,37.37
2017-10-21T20:03:58.631Z,21.60
2017-10-21T20:06:26.208Z,15.00
2017-10-21T20:08:53.715Z,14.87
2017-10-21T20:11:21.248Z,12.80
2017-10-21T20:13:48.749Z,13.60
2017-10-21T20:16:16.237Z,20.23
2017-10-21T20:18:43.779Z,19.10
2017-10-21T20:21:11.276Z,21.83
2017-10-21T20:23:38.773Z,17.50
2017-10-21T20:26:06.308Z,17.97
2017-10-21T20:28:33.800Z,18.30
2017-10-21T20:31:01.302Z,35.10
2017-10-21T20:33:28.832Z,26.67
2017-10-21T20:35:56.329Z,22.70
2017-10-21T20:38:23.839Z,24.13
2017-10-21T20:40:51.370Z,39.20
2017-10-21T20:43:18.868Z,12.30
2017-10-21T20:45:46.368Z,19.70
2017-10-21T20:48:13.926Z,14.00
2017-10-21T20:50:41.420Z,15.13
2017-10-21T20:53:08.947Z,15.13
2017-10-21T20:55:36.475Z,36.77
2017-10-21T20:58:04.032Z,12.93
2017-10-21T21:00:31.568Z,16.20
2017-10-21T21:02:59.087Z,14.73
2017-10-21T21:05:26.637Z,14.70
2017-10-21T21:07:54.144Z,15.70
2017-10-21T21:10:21.711Z,12.97
2017-10-21T21:12:49.254Z,12.93
2017-10-21T21:15:16.829Z,12.50
2017-10-21T21:17:44.330Z,14.30
2017-10-21T21:20:11.874Z,24.70
2017-10-21T21:22:39.377Z,18.50
2017-10-21T21:25:06.959Z,12.50
2017-10-21T21:27:34.475Z,10.67
2017-10-21T21:30:02.026Z,22.00
2017-10-21T21:32:29.540Z,12.67
2017-10-21T21:34:57.049Z,17.90
2017-10-21T21:37:24.764Z,12.13
2017-10-21T21:39:52.264Z,14.00
2017-10-21T21:42:19.873Z,20.67
2017-10-21T21:44:47.436Z,21.33
2017-10-21T21:47:14.950Z,11.87
2017-10-21T21:49:42.439Z,12.17
2017-10-21T21:52:09.947Z,14.50
2017-10-21T21:54:37.488Z,13.20
2017-10-21T21:57:04.979Z,14.40
2017-10-21T21:59:32.474Z,13.13
2017-10-21T22:02:00.012Z,14.90
2017-10-21T22:04:27.598Z,12.33
2017-10-21T22:06:55.164Z,14.77
2017-10-21T22:09:22.684Z,14.83
2017-10-21T22:11:50.239Z,13.30
2017-10-21T22:14:17.740Z,12.10
2017-10-21T22:16:45.237Z,14.70
2017-10-21T22:19:12.763Z,12.77
2017-10-21T22:21:40.320Z,13.27
2017-10-21T22:24:07.883Z,13.03
2017-10-21T22:26:35.434Z,14.67
2017-10-21T22:29:02.989Z,14.93
2017-10-21T22:31:30.516Z,12.33
2017-10-21T22:33:58.015Z,14.93
2017-10-21T22:36:25.504Z,13.43
2017-10-21T22:38:53.023Z,11.87
2017-10-21T22:41:20.549Z,16.63
2017-10-21T22:43:48.053Z,15.60
2017-10-21T22:46:15.552Z,11.83
2017-10-21T22:48:43.156Z,11.27
2017-10-21T22:51:10.660Z,12.33
2017-10-21T22:53:38.155Z,12.67
2017-10-21T22:56:05.692Z,13.00
2017-10-21T22:58:33.303Z,15.73
2017-10-21T23:01:00.857Z,19.03
2017-10-21T23:03:28.387Z,14.27
2017-10-21T23:05:55.980Z,17.90
2017-10-21T23:08:23.478Z,13.80
2017-10-21T23:10:51.012Z,12.10
2017-10-21T23:13:18.504Z,13.03
2017-10-21T23:15:46.006Z,12.53
2017-10-21T23:18:13.529Z,12.90
2017-10-21T23:20:41.127Z,12.87
2017-10-21T23:23:08.626Z,26.70
2017-10-21T23:25:36.149Z,13.10
2017-10-21T23:28:03.641Z,13.60
2017-10-21T23:30:31.139Z,15.17
2017-10-21T23:32:58.672Z,13.50
2017-10-21T23:35:26.199Z,14.60
2017-10-21T23:37:53.727Z,12.40
2017-10-21T23:40:21.264Z,13.10
2017-10-21T23:42:48.754Z,19.33
2017-10-21T23:45:16.327Z,12.83
2017-10-21T23:47:43.856Z,20.37
2017-10-21T23:50:11.348Z,22.00
2017-10-21T23:52:38.840Z,29.73
2017-10-21T23:55:06.352Z,17.67
2017-10-21T23:57:33.849Z,14.77
